Time;durP1;ratioP1;P1;durP2;ratioP2;P2;SDS_P1;SDS_P2;PMS_P1;PMS_P2;Temp;Humidity;BMP_temperature;BMP_pressure;BME280_temperature;BME280_humidity;BME280_pressure;Samples;Min_cycle;Max_cycle;Signal;HPM_P1;HPM_P2
2022/05/21 00:01:44;;;;;;;22.95;10.50;;;13.70;77.30;;;;;;9182806;19;20015;-69
2022/05/21 00:04:49;;;;;;;24.52;10.98;;;13.70;77.40;;;;;;9182800;19;20018;-69
2022/05/21 00:07:55;;;;;;;18.63;10.70;;;13.70;77.50;;;;;;9182802;19;20358;-70
2022/05/21 00:11:02;;;;;;;25.73;12.07;;;13.70;77.50;;;;;;9181548;19;20014;-68
2022/05/21 00:14:08;;;;;;;23.05;13.10;;;13.60;77.50;;;;;;9184263;19;20351;-69
2022/05/21 00:17:16;;;;;;;27.30;14.13;;;13.70;77.50;;;;;;9181768;19;20486;-70
2022/05/21 00:23:44;;;;;;;27.77;14.98;;;13.70;77.60;;;;;;9181726;19;20034;-70
2022/05/21 00:26:51;;;;;;;25.92;15.27;;;13.70;77.60;;;;;;9181495;19;20754;-70
2022/05/21 00:29:57;;;;;;;33.17;17.65;;;13.60;77.60;;;;;;9179961;19;20467;-70
2022/05/21 00:33:02;;;;;;;29.48;17.40;;;13.70;77.60;;;;;;9180886;19;20013;-69
2022/05/21 00:36:08;;;;;;;26.90;17.02;;;13.70;77.80;;;;;;9182807;19;20018;-70
2022/05/21 00:39:13;;;;;;;29.75;16.67;;;13.70;77.80;;;;;;9181182;19;20083;-70
2022/05/21 00:42:22;;;;;;;23.23;16.75;;;13.70;77.80;;;;;;9182672;19;20011;-70
2022/05/21 00:45:27;;;;;;;30.67;15.98;;;13.70;77.90;;;;;;9181081;19;20025;-69
2022/05/21 00:48:33;;;;;;;29.10;15.48;;;13.70;77.80;;;;;;9176157;19;20599;-70
2022/05/21 00:51:43;;;;;;;25.15;15.52;;;13.70;77.90;;;;;;9181587;19;20014;-70
2022/05/21 00:54:51;;;;;;;24.52;15.57;;;13.70;77.90;;;;;;9180501;19;20015;-69
2022/05/21 01:01:21;;;;;;;25.07;14.20;;;13.70;78.10;;;;;;9179916;19;20489;-70
2022/05/21 01:08:18;;;;;;;21.27;13.60;;;13.70;78.10;;;;;;9182638;19;20015;-86
2022/05/21 01:11:24;;;;;;;24.70;12.88;;;13.70;77.90;;;;;;9182558;19;20010;-86
2022/05/21 01:18:08;;;;;;;29.33;13.85;;;13.70;78.20;;;;;;9182610;19;20018;-86
2022/05/21 01:21:14;;;;;;;29.00;15.18;;;13.70;78.10;;;;;;9184158;19;20035;-85
2022/05/21 01:24:40;;;;;;;22.35;12.82;;;13.60;78.00;;;;;;9182378;19;20014;-85
2022/05/21 01:27:48;;;;;;;36.45;15.85;;;13.70;78.30;;;;;;9183176;19;20014;-84
2022/05/21 01:31:02;;;;;;;28.38;14.63;;;13.60;78.70;;;;;;9182981;19;20019;-84
2022/05/21 01:34:10;;;;;;;23.88;14.25;;;13.60;78.20;;;;;;9182189;19;20062;-85
2022/05/21 01:37:19;;;;;;;25.42;14.40;;;13.70;78.20;;;;;;9182535;19;20014;-84
2022/05/21 01:40:30;;;;;;;28.73;14.63;;;13.60;78.20;;;;;;9181804;19;20363;-85
2022/05/21 01:46:58;;;;;;;27.55;15.55;;;13.70;78.30;;;;;;9179145;19;20011;-85
2022/05/21 01:50:06;;;;;;;26.23;14.60;;;13.70;78.30;;;;;;9178515;19;20011;-84
2022/05/21 01:53:35;;;;;;;27.38;15.23;;;13.60;78.30;;;;;;9189823;19;20809;-85
2022/05/21 01:56:48;;;;;;;31.00;15.52;;;13.60;78.40;;;;;;9187816;19;20014;-84
2022/05/21 01:59:58;;;;;;;25.70;15.13;;;13.60;78.30;;;;;;9189854;19;20018;-84
2022/05/21 02:03:16;;;;;;;21.90;14.60;;;13.60;78.30;;;;;;9189672;19;20025;-85
2022/05/21 02:06:33;;;;;;;28.13;15.52;;;13.60;78.20;;;;;;9186823;19;20530;-85
2022/05/21 02:10:09;;;;;;;29.17;16.05;;;13.60;78.30;;;;;;9187037;19;20015;-85
2022/05/21 02:13:32;;;;;;;25.25;15.13;;;13.60;78.40;;;;;;9185682;19;20052;-85
2022/05/21 02:16:40;;;;;;;22.75;16.30;;;13.60;78.40;;;;;;9187930;19;20352;-84
2022/05/21 02:19:50;;;;;;;28.70;15.40;;;13.60;78.30;;;;;;9188586;19;20129;-84
2022/05/21 02:22:55;;;;;;;24.85;15.27;;;13.60;78.30;;;;;;9186627;19;20467;-85
2022/05/21 02:26:17;;;;;;;29.75;15.48;;;13.60;78.30;;;;;;9187012;19;20023;-85
2022/05/21 02:29:53;;;;;;;22.92;15.05;;;13.60;78.40;;;;;;9186550;19;20006;-85
2022/05/21 02:33:19;;;;;;;24.88;14.98;;;13.60;78.60;;;;;;9189738;19;20026;-86
2022/05/21 02:40:57;;;;;;;27.35;15.38;;;13.70;78.60;;;;;;9187156;19;20017;-86
2022/05/21 02:48:22;;;;;;;26.88;15.45;;;13.60;78.30;;;;;;9182004;19;20559;-85
2022/05/21 02:51:41;;;;;;;31.67;16.52;;;13.60;78.50;;;;;;9184418;19;20093;-86
2022/05/21 02:54:51;;;;;;;26.13;15.73;;;13.60;78.60;;;;;;9181937;19;20026;-84
2022/05/21 02:58:03;;;;;;;29.30;15.43;;;13.70;78.50;;;;;;9183815;19;20482;-84
2022/05/21 03:01:12;;;;;;;26.65;15.35;;;13.70;78.50;;;;;;9184782;19;20524;-84
2022/05/21 03:04:26;;;;;;;27.42;15.80;;;13.70;78.50;;;;;;9184161;19;20020;-85
2022/05/21 03:12:39;;;;;;;29.13;15.15;;;13.70;78.60;;;;;;9183794;19;20022;-86
2022/05/21 03:15:44;;;;;;;27.15;16.52;;;13.70;78.50;;;;;;9184291;19;20018;-86
2022/05/21 03:18:53;;;;;;;25.65;16.17;;;13.70;78.40;;;;;;9184589;19;20057;-85
2022/05/21 03:22:04;;;;;;;32.97;17.00;;;13.70;78.50;;;;;;9184692;19;20025;-86
2022/05/21 03:25:43;;;;;;;39.63;16.85;;;13.70;78.60;;;;;;9183680;19;20014;-85
2022/05/21 03:28:52;;;;;;;31.90;17.80;;;13.80;78.60;;;;;;9180927;19;20006;-85
2022/05/21 03:32:04;;;;;;;22.95;16.10;;;13.70;78.50;;;;;;9184099;19;20030;-86
2022/05/21 03:38:39;;;;;;;31.58;16.63;;;13.70;78.60;;;;;;9179678;19;20018;-85
2022/05/21 03:41:49;;;;;;;31.88;16.25;;;13.80;78.70;;;;;;9183908;19;20017;-86
2022/05/21 03:44:57;;;;;;;32.40;16.33;;;13.80;78.70;;;;;;9186776;19;20013;-85
2022/05/21 03:48:06;;;;;;;29.98;16.00;;;13.80;78.60;;;;;;9183291;19;20787;-86
2022/05/21 03:51:14;;;;;;;34.65;16.48;;;13.80;78.70;;;;;;9184132;19;20017;-86
2022/05/21 03:54:23;;;;;;;31.83;16.15;;;13.80;78.70;;;;;;9185973;19;20006;-86
2022/05/21 03:57:31;;;;;;;24.77;15.60;;;13.80;78.80;;;;;;9186071;19;20021;-86
2022/05/21 04:00:59;;;;;;;25.08;16.55;;;13.80;78.80;;;;;;9185240;19;20014;-85
2022/05/21 04:04:07;;;;;;;27.60;16.02;;;13.80;78.70;;;;;;9184554;19;20018;-85
2022/05/21 04:07:14;;;;;;;27.95;15.63;;;13.80;78.80;;;;;;9184857;19;20019;-85
2022/05/21 04:10:30;;;;;;;29.73;15.63;;;13.80;78.80;;;;;;9184788;19;20014;-85
2022/05/21 04:13:43;;;;;;;37.43;16.90;;;13.80;78.90;;;;;;9183104;19;20381;-86
2022/05/21 04:16:48;;;;;;;30.00;15.40;;;13.80;78.90;;;;;;9179709;19;20470;-86
2022/05/21 04:20:00;;;;;;;28.73;16.00;;;13.80;78.90;;;;;;9184788;19;20014;-86
2022/05/21 04:23:14;;;;;;;33.70;14.20;;;13.90;79.10;;;;;;9184696;19;20479;-85
2022/05/21 04:26:28;;;;;;;25.45;14.80;;;13.90;79.00;;;;;;9185258;19;20017;-85
2022/05/21 04:29:38;;;;;;;32.17;14.95;;;13.90;79.20;;;;;;9182228;19;20371;-86
2022/05/21 04:32:44;;;;;;;27.20;13.68;;;13.90;79.10;;;;;;9181407;19;20018;-85
2022/05/21 04:39:27;;;;;;;22.38;12.25;;;14.00;78.90;;;;;;9179383;19;20337;-85
2022/05/21 04:43:00;;;;;;;30.83;12.05;;;14.00;79.00;;;;;;9179444;19;20022;-86
2022/05/21 04:46:25;;;;;;;31.77;11.95;;;14.00;79.10;;;;;;9182899;19;20328;-86
2022/05/21 04:49:42;;;;;;;30.05;13.20;;;14.00;79.20;;;;;;9184273;19;20031;-86
2022/05/21 04:52:50;;;;;;;29.08;12.52;;;14.00;79.00;;;;;;9183743;19;20010;-86
2022/05/21 04:56:04;;;;;;;26.27;12.10;;;14.00;79.00;;;;;;9183724;19;20013;-86
2022/05/21 05:04:00;;;;;;;26.42;11.25;;;14.00;79.20;;;;;;9176350;19;20021;-70
2022/05/21 05:07:09;;;;;;;25.88;11.63;;;14.10;79.00;;;;;;9180994;19;20018;-70
2022/05/21 05:10:14;;;;;;;32.80;11.43;;;14.00;79.10;;;;;;9181892;19;20021;-71
2022/05/21 05:13:20;;;;;;;24.27;10.65;;;14.10;79.20;;;;;;9182889;19;20034;-72
2022/05/21 05:16:25;;;;;;;27.70;11.43;;;14.10;79.20;;;;;;9181928;19;20475;-74
2022/05/21 05:19:34;;;;;;;32.33;11.10;;;14.10;79.20;;;;;;9180977;19;20010;-72
2022/05/21 05:22:39;;;;;;;38.65;12.25;;;14.20;79.30;;;;;;9183185;19;20014;-71
2022/05/21 05:25:45;;;;;;;23.50;10.25;;;14.20;79.30;;;;;;9183941;19;20036;-71
2022/05/21 05:28:49;;;;;;;24.65;10.57;;;14.20;79.30;;;;;;9192414;19;20331;-71
2022/05/21 05:31:54;;;;;;;34.25;11.73;;;14.30;79.40;;;;;;9188659;19;20014;-71
2022/05/21 05:35:02;;;;;;;33.13;11.20;;;14.30;79.50;;;;;;9190767;19;20007;-71
2022/05/21 05:38:10;;;;;;;25.92;9.32;;;14.40;79.60;;;;;;9191119;19;20011;-70
2022/05/21 05:41:15;;;;;;;27.10;9.18;;;14.50;79.60;;;;;;9189808;19;20460;-71
2022/05/21 05:44:25;;;;;;;22.73;7.78;;;14.60;79.60;;;;;;9189847;19;20017;-71
2022/05/21 05:47:31;;;;;;;23.55;8.02;;;14.70;79.70;;;;;;9187498;19;20014;-71
2022/05/21 05:50:39;;;;;;;22.13;6.78;;;14.80;79.70;;;;;;9187135;19;20019;-71
2022/05/21 05:53:43;;;;;;;25.17;6.30;;;14.90;79.60;;;;;;9190026;19;20459;-71
2022/05/21 05:56:49;;;;;;;21.48;6.13;;;15.00;79.40;;;;;;9189445;19;20019;-71
2022/05/21 05:59:51;;;;;;;20.27;5.60;;;15.20;79.40;;;;;;9189070;19;20026;-70
2022/05/21 06:03:02;;;;;;;28.80;5.28;;;15.30;79.30;;;;;;9183079;19;20014;-71
2022/05/21 06:06:10;;;;;;;15.55;4.50;;;15.30;79.10;;;;;;9185026;19;20070;-70
2022/05/21 06:09:15;;;;;;;19.88;4.97;;;15.40;79.00;;;;;;9183097;19;20025;-72
2022/05/21 06:12:22;;;;;;;25.15;4.88;;;15.50;78.90;;;;;;9180722;19;20018;-71
2022/05/21 06:15:34;;;;;;;20.77;4.25;;;15.60;78.80;;;;;;9183291;19;20048;-71
2022/05/21 06:18:39;;;;;;;22.05;4.40;;;15.70;78.80;;;;;;9182852;19;20021;-71
2022/05/21 06:21:49;;;;;;;20.13;4.40;;;15.70;79.20;;;;;;9186558;19;20516;-71
2022/05/21 06:24:54;;;;;;;20.80;4.38;;;15.80;78.50;;;;;;9187821;19;20366;-69
2022/05/21 06:27:59;;;;;;;21.38;5.35;;;15.90;78.50;;;;;;9187119;19;20011;-70
2022/05/21 06:31:04;;;;;;;26.63;4.90;;;15.90;78.40;;;;;;9187731;19;20025;-71
2022/05/21 06:34:09;;;;;;;19.73;4.18;;;16.00;78.30;;;;;;9188030;19;20033;-73
2022/05/21 06:37:16;;;;;;;21.40;3.83;;;16.00;78.20;;;;;;9187321;19;20049;-73
2022/05/21 06:40:22;;;;;;;19.35;3.72;;;16.10;78.20;;;;;;9186761;19;20491;-73
2022/05/21 06:43:27;;;;;;;19.15;3.70;;;16.10;78.00;;;;;;9190007;19;20014;-72
2022/05/21 06:46:32;;;;;;;29.83;3.75;;;16.20;78.00;;;;;;9181892;19;20010;-73
2022/05/21 06:49:37;;;;;;;15.43;3.45;;;16.20;77.90;;;;;;9185674;19;20011;-72
2022/05/21 06:52:45;;;;;;;18.60;3.83;;;16.30;77.70;;;;;;9184396;19;20010;-71
2022/05/21 06:55:51;;;;;;;12.40;4.00;;;16.40;77.50;;;;;;9186865;19;20589;-72
2022/05/21 06:58:56;;;;;;;14.65;3.70;;;16.40;77.40;;;;;;9186031;19;20011;-72
2022/05/21 07:02:01;;;;;;;16.88;4.20;;;16.40;77.20;;;;;;9187415;19;20018;-70
2022/05/21 07:08:29;;;;;;;22.75;3.88;;;16.50;77.10;;;;;;9183723;19;20018;-73
2022/05/21 07:11:34;;;;;;;21.55;4.13;;;16.50;77.00;;;;;;9183817;19;20011;-72
2022/05/21 07:14:40;;;;;;;21.30;4.10;;;16.50;76.90;;;;;;9186904;19;20017;-69
2022/05/21 07:17:45;;;;;;;23.92;3.90;;;16.50;76.90;;;;;;9186075;19;20771;-73
2022/05/21 07:20:51;;;;;;;18.85;4.15;;;16.50;76.80;;;;;;9186079;19;20081;-73
2022/05/21 07:23:59;;;;;;;17.27;3.95;;;16.60;76.80;;;;;;9186054;19;20013;-71
2022/05/21 07:27:04;;;;;;;14.90;3.65;;;16.60;76.70;;;;;;9186012;19;20014;-72
2022/05/21 07:30:10;;;;;;;28.83;3.88;;;16.70;76.80;;;;;;9186186;19;20022;-73
2022/05/21 07:33:18;;;;;;;24.38;4.30;;;16.70;76.70;;;;;;9184223;19;20019;-73
2022/05/21 07:36:23;;;;;;;22.65;3.47;;;16.80;76.50;;;;;;9186036;19;20014;-74
2022/05/21 07:39:31;;;;;;;17.98;3.30;;;16.80;76.40;;;;;;9184302;19;20015;-73
2022/05/21 07:42:36;;;;;;;21.17;4.03;;;16.90;76.40;;;;;;9185375;19;20015;-71
2022/05/21 07:45:42;;;;;;;17.10;3.17;;;17.00;76.50;;;;;;9185399;19;20498;-74
2022/05/21 07:48:47;;;;;;;27.08;4.00;;;17.10;76.30;;;;;;9176992;19;20994;-75
2022/05/21 07:51:52;;;;;;;12.88;2.83;;;17.10;76.20;;;;;;9182538;19;20025;-73
2022/05/21 07:55:00;;;;;;;19.73;3.78;;;17.30;76.20;;;;;;9184800;19;20011;-70
2022/05/21 07:58:05;;;;;;;15.13;3.00;;;17.40;75.90;;;;;;9183185;19;20371;-73
2022/05/21 08:01:11;;;;;;;16.23;3.22;;;17.50;75.80;;;;;;9185460;19;20341;-73
2022/05/21 08:04:22;;;;;;;18.05;3.25;;;17.60;75.50;;;;;;9182937;19;20017;-75
2022/05/21 08:07:27;;;;;;;24.38;3.38;;;17.70;75.40;;;;;;9183749;19;20481;-72
2022/05/21 08:10:35;;;;;;;19.40;3.80;;;17.80;75.20;;;;;;9183133;19;20011;-72
2022/05/21 08:13:41;;;;;;;18.80;3.35;;;17.80;74.90;;;;;;9182981;19;20013;-75
2022/05/21 08:16:46;;;;;;;20.92;2.97;;;17.90;74.80;;;;;;9182511;19;20015;-74
2022/05/21 08:19:51;;;;;;;24.42;3.53;;;18.00;74.60;;;;;;9182606;19;20471;-73
2022/05/21 08:29:43;;;;;;;15.23;2.63;;;18.20;74.30;;;;;;9183032;19;20011;-75
2022/05/21 08:32:48;;;;;;;14.82;2.70;;;18.30;74.20;;;;;;9180268;19;20056;-72
2022/05/21 08:35:53;;;;;;;17.80;2.90;;;18.30;74.10;;;;;;9182345;19;20014;-75
2022/05/21 08:38:58;;;;;;;21.55;3.25;;;18.40;74.10;;;;;;9182386;19;20390;-72
2022/05/21 08:42:13;;;;;;;19.02;2.88;;;18.40;73.90;;;;;;9182679;19;20024;-74
2022/05/21 08:45:23;;;;;;;14.32;2.58;;;18.50;73.40;;;;;;9181096;19;20436;-72
2022/05/21 08:48:31;;;;;;;14.35;2.70;;;18.60;73.30;;;;;;9177139;19;20006;-73
2022/05/21 08:51:48;;;;;;;10.32;2.05;;;18.70;73.10;;;;;;9179613;19;20475;-72
2022/05/21 08:54:57;;;;;;;21.63;2.40;;;18.70;72.60;;;;;;9180750;19;20014;-70
2022/05/21 08:58:20;;;;;;;13.48;2.40;;;18.70;72.70;;;;;;9181493;19;20022;-69
2022/05/21 09:01:27;;;;;;;13.18;2.63;;;18.70;72.50;;;;;;9189951;19;20014;-69
2022/05/21 09:04:34;;;;;;;9.88;2.17;;;18.70;72.60;;;;;;9190433;19;20018;-66
2022/05/21 09:07:51;;;;;;;13.05;2.58;;;18.80;72.70;;;;;;9189320;19;20641;-68
2022/05/21 09:11:04;;;;;;;11.18;2.88;;;18.80;72.50;;;;;;9190011;19;20126;-70
2022/05/21 09:14:15;;;;;;;15.07;2.17;;;18.90;72.60;;;;;;9186401;19;20555;-70
2022/05/21 09:17:25;;;;;;;13.15;1.80;;;19.10;72.40;;;;;;9190511;19;20007;-69
2022/05/21 09:20:35;;;;;;;9.60;2.00;;;19.20;72.00;;;;;;9189762;19;20015;-73
2022/05/21 09:23:52;;;;;;;7.75;2.03;;;19.20;71.60;;;;;;9189963;19;20040;-73
2022/05/21 09:26:59;;;;;;;9.25;2.00;;;19.30;71.10;;;;;;9189372;19;20011;-73
2022/05/21 09:30:23;;;;;;;16.30;2.38;;;19.30;71.30;;;;;;9188595;19;20320;-73
2022/05/21 09:33:35;;;;;;;15.90;2.65;;;19.40;71.00;;;;;;9180682;19;20022;-73
2022/05/21 09:36:40;;;;;;;8.95;2.17;;;19.50;71.00;;;;;;9185362;19;20010;-73
2022/05/21 09:39:52;;;;;;;16.83;2.47;;;19.60;70.90;;;;;;9185902;19;20019;-75
2022/05/21 09:46:22;;;;;;;10.77;1.70;;;19.70;70.40;;;;;;9185010;19;20018;-74
2022/05/21 09:49:30;;;;;;;10.68;1.83;;;19.80;70.00;;;;;;9185666;19;20487;-74
2022/05/21 09:52:37;;;;;;;6.63;1.65;;;19.90;69.80;;;;;;9185518;19;20025;-74
2022/05/21 09:55:44;;;;;;;7.43;1.83;;;19.90;69.50;;;;;;9189683;19;20022;-75
2022/05/21 09:58:54;;;;;;;10.40;2.05;;;20.00;69.40;;;;;;9188606;19;20025;-74
2022/05/21 10:02:04;;;;;;;18.75;3.10;;;20.00;69.20;;;;;;9183286;19;20460;-72
2022/05/21 10:05:12;;;;;;;10.70;1.90;;;20.00;69.00;;;;;;9183669;19;20424;-73
2022/05/21 10:11:49;;;;;;;8.48;2.17;;;20.10;68.50;;;;;;9183638;19;20015;-73
2022/05/21 10:15:03;;;;;;;7.80;1.85;;;20.20;68.40;;;;;;9186432;19;20103;-75
2022/05/21 10:18:19;;;;;;;8.95;1.77;;;20.20;68.20;;;;;;9187177;19;20011;-74
2022/05/21 10:21:35;;;;;;;7.65;1.83;;;20.20;68.10;;;;;;9184769;19;20053;-71
2022/05/21 10:24:48;;;;;;;10.10;1.95;;;20.20;68.20;;;;;;9187286;19;20092;-73
2022/05/21 10:28:17;;;;;;;6.97;1.88;;;20.30;68.10;;;;;;9186883;19;20023;-69
2022/05/21 10:31:40;;;;;;;7.95;1.65;;;20.40;67.80;;;;;;9186306;19;20050;-75
2022/05/21 10:34:59;;;;;;;8.30;2.00;;;20.40;67.50;;;;;;9184039;19;20497;-75
2022/05/21 10:38:12;;;;;;;8.77;1.60;;;20.50;67.40;;;;;;9185310;19;20014;-73
2022/05/21 10:41:37;;;;;;;12.13;2.45;;;20.60;67.20;;;;;;9185870;19;20045;-72
2022/05/21 10:44:58;;;;;;;8.13;1.60;;;20.60;66.80;;;;;;9184314;19;20467;-74
2022/05/21 10:48:30;;;;;;;;;;;20.70;66.70;;;;;;9183481;19;20015;-75
2022/05/21 10:51:49;;;;;;;9.10;1.70;;;20.70;67.30;;;;;;9184433;19;19961;-74
2022/05/21 10:55:05;;;;;;;5.20;1.67;;;20.80;67.00;;;;;;9183813;19;20082;-73
2022/05/21 10:58:41;;;;;;;5.03;1.58;;;20.80;66.50;;;;;;9184782;19;20019;-75
2022/05/21 11:01:53;;;;;;;8.48;1.90;;;20.90;66.30;;;;;;9186100;19;20018;-73
2022/05/21 11:05:28;;;;;;;7.75;1.83;;;20.90;66.30;;;;;;9187196;19;20014;-74
2022/05/21 11:08:44;;;;;;;9.90;1.98;;;20.90;66.00;;;;;;9182741;19;20098;-75
2022/05/21 11:12:01;;;;;;;10.23;2.13;;;20.90;66.00;;;;;;9186485;19;20007;-74
2022/05/21 11:15:19;;;;;;;11.88;1.80;;;20.90;65.70;;;;;;9184626;19;20014;-76
2022/05/21 11:18:35;;;;;;;11.75;2.35;;;21.00;65.70;;;;;;9185089;19;20490;-74
2022/05/21 11:21:47;;;;;;;8.20;1.65;;;20.90;65.50;;;;;;9184435;19;20354;-74
2022/05/21 11:25:12;;;;;;;10.23;1.52;;;20.90;65.50;;;;;;9183966;19;20460;-75
2022/05/21 11:28:34;;;;;;;9.15;2.03;;;20.80;65.30;;;;;;9183141;19;20590;-75
2022/05/21 11:38:46;;;;;;;11.50;2.35;;;20.90;65.40;;;;;;9186218;19;20340;-76
2022/05/21 11:42:14;;;;;;;10.95;1.95;;;20.90;65.20;;;;;;9183366;19;20006;-75
2022/05/21 11:45:25;;;;;;;16.48;1.90;;;21.00;64.70;;;;;;9186154;19;20475;-71
2022/05/21 11:48:34;;;;;;;;;;;21.10;64.90;;;;;;9182665;19;20025;-73
2022/05/21 11:51:39;;;;;;;7.60;1.92;;;21.20;65.40;;;;;;9183293;19;19910;-74
2022/05/21 11:55:04;;;;;;;7.85;1.45;;;21.30;65.20;;;;;;9181558;19;20022;-72
2022/05/21 11:58:16;;;;;;;8.88;1.98;;;21.30;64.30;;;;;;9184109;19;20021;-74
2022/05/21 12:02:05;;;;;;;8.68;1.85;;;21.40;64.30;;;;;;9180406;19;20081;-74
2022/05/21 12:05:13;;;;;;;6.47;1.52;;;21.50;63.80;;;;;;9178398;19;20015;-75
2022/05/21 12:08:36;;;;;;;7.53;1.77;;;21.50;64.00;;;;;;9175078;19;20523;-73
2022/05/21 12:11:46;;;;;;;13.55;1.95;;;21.60;63.90;;;;;;9177488;19;20792;-75
2022/05/21 12:14:59;;;;;;;8.77;1.92;;;21.60;63.60;;;;;;9178638;19;20022;-76
2022/05/21 12:18:09;;;;;;;9.27;1.88;;;21.70;63.60;;;;;;9181141;19;20038;-75
2022/05/21 12:21:58;;;;;;;7.22;1.50;;;21.70;63.50;;;;;;9170640;19;20534;-72
2022/05/21 12:25:06;;;;;;;6.00;1.40;;;21.80;62.90;;;;;;9174744;19;20050;-72
2022/05/21 12:28:12;;;;;;;6.22;1.33;;;21.80;63.00;;;;;;9181101;19;20483;-73
2022/05/21 12:31:24;;;;;;;39.35;2.22;;;21.90;62.90;;;;;;9180897;19;20475;-72
2022/05/21 12:34:40;;;;;;;6.95;1.55;;;21.90;62.50;;;;;;9179499;19;20006;-73
2022/05/21 12:37:47;;;;;;;8.77;2.10;;;21.90;62.40;;;;;;9182861;19;20015;-76
2022/05/21 12:41:03;;;;;;;7.95;1.80;;;21.90;62.40;;;;;;9183542;19;20010;-75
2022/05/21 12:44:08;;;;;;;8.75;1.30;;;21.90;62.20;;;;;;9182761;19;20014;-76
2022/05/21 12:47:15;;;;;;;8.85;1.60;;;21.90;62.30;;;;;;9182458;19;20359;-75
2022/05/21 12:50:22;;;;;;;7.38;1.52;;;22.00;62.30;;;;;;9177405;19;20033;-75
2022/05/21 12:53:34;;;;;;;5.68;1.35;;;22.00;62.00;;;;;;9177809;19;20014;-74
2022/05/21 12:56:44;;;;;;;;;;;22.00;61.60;;;;;;9176701;19;20018;-76
2022/05/21 12:59:49;;;;;;;5.07;1.63;;;22.10;62.30;;;;;;9179562;19;19923;-75
2022/05/21 13:02:56;;;;;;;7.32;1.85;;;22.20;62.10;;;;;;9178312;19;20034;-75
2022/05/21 13:06:04;;;;;;;13.45;1.92;;;22.20;61.60;;;;;;9177529;19;20018;-76
2022/05/21 13:09:14;;;;;;;9.50;2.05;;;22.20;61.30;;;;;;9178841;19;20023;-76
2022/05/21 13:12:23;;;;;;;6.40;1.55;;;22.20;61.20;;;;;;9179435;19;20018;-76
2022/05/21 13:15:33;;;;;;;6.22;1.95;;;22.20;60.80;;;;;;9173887;19;20368;-75
2022/05/21 13:18:47;;;;;;;6.57;1.70;;;22.10;60.70;;;;;;9174906;19;20037;-75
2022/05/21 13:21:54;;;;;;;;;;;22.00;60.40;;;;;;9171963;19;20019;-73
2022/05/21 13:25:03;;;;;;;6.82;1.77;;;22.00;61.20;;;;;;9173118;19;20613;-75
2022/05/21 13:28:19;;;;;;;8.25;1.75;;;21.90;61.00;;;;;;9173920;19;20019;-73
2022/05/21 13:31:25;;;;;;;11.85;2.25;;;21.80;60.70;;;;;;9172645;19;20018;-73
2022/05/21 13:34:38;;;;;;;12.40;2.40;;;21.70;60.90;;;;;;9171365;19;20022;-76
2022/05/21 13:37:45;;;;;;;9.52;1.90;;;21.60;60.60;;;;;;9172303;19;20011;-75
2022/05/21 13:40:54;;;;;;;8.25;1.85;;;21.60;60.80;;;;;;9171852;19;20519;-74
2022/05/21 13:44:03;;;;;;;6.78;1.90;;;21.60;60.70;;;;;;9174978;19;20011;-76
2022/05/21 13:47:14;;;;;;;7.40;1.60;;;21.50;60.50;;;;;;9177051;19;20014;-75
2022/05/21 13:50:21;;;;;;;10.00;2.00;;;21.50;60.60;;;;;;9183813;19;20017;-75
2022/05/21 13:53:30;;;;;;;10.68;2.05;;;21.50;60.70;;;;;;9188437;19;20018;-75
2022/05/21 13:56:37;;;;;;;8.95;1.92;;;21.50;60.60;;;;;;9188289;19;20055;-75
2022/05/21 13:59:58;;;;;;;8.40;2.03;;;21.50;60.70;;;;;;9186003;19;20015;-74
2022/05/21 14:03:23;;;;;;;5.30;1.50;;;21.50;60.50;;;;;;9187259;19;20007;-73
2022/05/21 14:06:28;;;;;;;6.75;2.20;;;21.50;60.40;;;;;;9188027;19;20014;-75
2022/05/21 14:09:36;;;;;;;8.98;2.00;;;21.40;60.60;;;;;;9188815;19;20485;-73
2022/05/21 14:12:49;;;;;;;10.57;1.58;;;21.30;60.40;;;;;;9188496;19;20428;-73
2022/05/21 14:16:11;;;;;;;13.57;2.13;;;21.30;60.40;;;;;;9183367;19;20021;-75
2022/05/21 14:19:28;;;;;;;8.80;1.88;;;21.30;60.40;;;;;;9188668;19;20012;-75
2022/05/21 14:22:35;;;;;;;11.50;1.75;;;21.20;60.30;;;;;;9184668;19;20521;-74
2022/05/21 14:25:40;;;;;;;7.18;1.60;;;21.20;60.50;;;;;;9185431;19;20021;-74
2022/05/21 14:28:46;;;;;;;4.90;1.17;;;21.10;60.50;;;;;;9184841;19;20018;-74
2022/05/21 14:31:54;;;;;;;9.05;1.70;;;21.10;60.40;;;;;;9187483;19;20086;-74
2022/05/21 14:35:17;;;;;;;10.45;1.90;;;21.10;60.30;;;;;;9183656;19;20014;-73
2022/05/21 14:38:24;;;;;;;5.32;1.65;;;21.10;60.00;;;;;;9184932;19;20014;-74
2022/05/21 14:41:33;;;;;;;11.35;1.98;;;21.00;60.10;;;;;;9186859;19;20029;-75
2022/05/21 14:44:38;;;;;;;10.75;1.88;;;21.00;60.10;;;;;;9186640;19;20403;-75
2022/05/21 14:47:56;;;;;;;7.68;1.42;;;20.90;60.20;;;;;;9185198;19;20515;-75
2022/05/21 14:54:18;;;;;;;9.95;1.77;;;20.90;60.30;;;;;;9184260;19;20345;-74
2022/05/21 14:57:23;;;;;;;11.68;1.67;;;20.90;60.20;;;;;;9184217;19;20393;-74
2022/05/21 15:00:29;;;;;;;13.23;2.70;;;20.90;60.20;;;;;;9183287;19;20542;-75
2022/05/21 15:03:37;;;;;;;9.45;1.58;;;20.90;60.90;;;;;;9186520;19;20010;-74
2022/05/21 15:06:42;;;;;;;5.95;1.95;;;20.90;60.10;;;;;;9183345;19;20043;-75
2022/05/21 15:09:52;;;;;;;4.35;1.15;;;20.80;60.10;;;;;;9186480;19;20414;-73
2022/05/21 15:12:57;;;;;;;5.13;1.60;;;20.80;60.00;;;;;;9183766;19;20503;-74
2022/05/21 15:16:06;;;;;;;12.93;1.95;;;20.80;60.00;;;;;;9182165;19;20018;-73
2022/05/21 15:19:14;;;;;;;6.25;1.52;;;20.70;60.00;;;;;;9183545;19;20020;-74
2022/05/21 15:22:21;;;;;;;14.50;2.25;;;20.70;60.00;;;;;;9178465;19;20011;-72
2022/05/21 15:25:26;;;;;;;10.38;2.25;;;20.70;60.00;;;;;;9182767;19;20014;-73
2022/05/21 15:28:31;;;;;;;6.60;1.58;;;20.70;60.00;;;;;;9184011;19;20014;-74
2022/05/21 15:31:37;;;;;;;9.25;1.88;;;20.70;60.00;;;;;;9186247;19;20047;-74
2022/05/21 15:34:46;;;;;;;10.23;1.38;;;20.70;60.00;;;;;;9182411;19;20014;-75
2022/05/21 15:37:51;;;;;;;5.60;1.55;;;20.60;59.80;;;;;;9182790;19;20014;-74
2022/05/21 15:40:57;;;;;;;8.93;1.67;;;20.70;59.90;;;;;;9183292;19;20018;-75
2022/05/21 15:44:05;;;;;;;8.90;2.05;;;20.70;59.80;;;;;;9183195;19;20771;-75
2022/05/21 15:47:11;;;;;;;9.68;1.67;;;20.70;59.80;;;;;;9183344;19;20014;-75
2022/05/21 15:50:23;;;;;;;8.18;1.52;;;20.60;59.60;;;;;;9180744;19;20021;-74
2022/05/21 15:53:30;;;;;;;8.80;1.58;;;20.60;59.60;;;;;;9184026;19;20025;-74
2022/05/21 15:56:35;;;;;;;10.20;1.73;;;20.60;59.70;;;;;;9181385;19;20014;-75
2022/05/21 15:59:41;;;;;;;12.15;1.67;;;20.60;59.60;;;;;;9181271;19;20018;-74
2022/05/21 16:02:47;;;;;;;11.50;1.95;;;20.60;60.30;;;;;;9181389;19;20494;-73
2022/05/21 16:05:55;;;;;;;18.08;2.28;;;20.60;59.70;;;;;;9181427;19;20014;-73
2022/05/21 16:09:02;;;;;;;9.70;2.03;;;20.60;59.60;;;;;;9181297;19;20010;-75
2022/05/21 16:12:08;;;;;;;7.88;1.65;;;20.60;59.80;;;;;;9182442;19;20020;-75
2022/05/21 16:15:22;;;;;;;11.70;2.58;;;20.50;59.70;;;;;;9180310;19;20495;-74
2022/05/21 16:18:27;;;;;;;12.93;1.92;;;20.50;59.50;;;;;;9179620;19;20467;-73
2022/05/21 16:21:36;;;;;;;15.90;2.25;;;20.50;59.60;;;;;;9177378;19;20010;-74
2022/05/21 16:24:41;;;;;;;8.70;1.80;;;20.50;59.60;;;;;;9180231;19;20405;-73
2022/05/21 16:27:46;;;;;;;15.02;2.33;;;20.40;59.70;;;;;;9180462;19;20467;-74
2022/05/21 16:30:54;;;;;;;12.63;1.92;;;20.40;59.70;;;;;;9179327;19;20018;-74
2022/05/21 16:34:00;;;;;;;9.25;2.28;;;20.40;59.80;;;;;;9181439;19;20018;-75
2022/05/21 16:37:15;;;;;;;9.05;2.05;;;20.30;59.80;;;;;;9176624;19;20015;-75
2022/05/21 16:40:22;;;;;;;11.80;2.63;;;20.20;59.80;;;;;;9179464;19;20021;-76
2022/05/21 16:43:36;;;;;;;9.88;2.40;;;20.20;59.90;;;;;;9179810;19;20461;-75
2022/05/21 16:46:44;;;;;;;12.32;2.55;;;20.20;59.90;;;;;;9178398;19;20024;-74
2022/05/21 16:49:49;;;;;;;11.27;2.28;;;20.20;60.00;;;;;;9180992;19;20010;-74
2022/05/21 16:52:59;;;;;;;8.98;1.92;;;20.10;60.10;;;;;;9180880;19;20011;-76
2022/05/21 16:56:05;;;;;;;8.20;1.92;;;20.10;60.10;;;;;;9177633;19;20475;-75
2022/05/21 16:59:11;;;;;;;11.93;2.55;;;20.10;60.30;;;;;;9178285;19;20026;-74
2022/05/21 17:02:17;;;;;;;17.30;2.35;;;20.00;60.30;;;;;;9178107;19;20117;-75
2022/05/21 17:05:25;;;;;;;8.88;2.50;;;20.00;60.30;;;;;;9177993;19;20437;-75
2022/05/21 17:08:33;;;;;;;10.93;2.00;;;20.00;60.30;;;;;;9178615;19;20048;-75
2022/05/21 17:11:38;;;;;;;9.50;1.92;;;19.90;60.20;;;;;;9177747;19;20037;-75
2022/05/21 17:14:50;;;;;;;12.55;2.38;;;19.80;60.30;;;;;;9175153;19;20022;-74
2022/05/21 17:18:04;;;;;;;11.95;2.33;;;19.80;60.30;;;;;;9181089;19;20003;-76
2022/05/21 17:21:10;;;;;;;17.58;2.53;;;19.70;60.40;;;;;;9181683;19;20019;-75
2022/05/21 17:24:18;;;;;;;9.13;1.52;;;19.70;60.30;;;;;;9194023;19;20119;-76
2022/05/21 17:30:41;;;;;;;9.02;1.90;;;19.60;60.30;;;;;;9191116;19;20109;-75
2022/05/21 17:33:52;;;;;;;6.95;2.03;;;19.60;60.40;;;;;;9191450;19;20018;-75